createdAt,value
2022-09-07T06:14:26.383Z,15.58
2022-09-07T06:24:26.452Z,15.56
2022-09-07T06:34:26.425Z,15.57
2022-09-07T06:44:26.412Z,15.63
2022-09-07T07:04:26.573Z,15.95
2022-09-07T07:14:28.122Z,16.06
2022-09-07T07:24:26.457Z,16.01
2022-09-07T07:34:26.758Z,16.16
2022-09-07T07:44:26.543Z,16.89
2022-09-07T07:54:26.463Z,17.88
2022-09-07T08:04:26.633Z,18.35
2022-09-07T08:14:26.633Z,18.38
2022-09-07T08:24:26.522Z,18.77
2022-09-07T08:34:26.601Z,19.46
2022-09-07T08:44:26.522Z,20.88
2022-09-07T08:54:26.650Z,20.97
2022-09-07T09:04:27.514Z,21.00
2022-09-07T09:14:26.713Z,21.15
2022-09-07T09:24:26.629Z,21.00
2022-09-07T09:34:29.482Z,21.63
2022-09-07T09:44:26.677Z,21.40
2022-09-07T09:54:26.518Z,21.26
2022-09-07T10:04:26.582Z,21.58
2022-09-07T10:14:26.657Z,22.38
2022-09-07T10:24:26.638Z,24.42
2022-09-07T10:34:26.850Z,23.95
2022-09-07T10:44:26.748Z,23.74
2022-09-07T10:54:30.710Z,24.23
2022-09-07T11:04:26.698Z,24.72
2022-09-07T11:14:26.685Z,25.78
2022-09-07T11:24:26.590Z,26.60
2022-09-07T11:34:26.679Z,24.83
2022-09-07T11:44:26.912Z,25.70
2022-09-07T11:54:26.815Z,25.23
2022-09-07T12:04:27.026Z,26.73
2022-09-07T12:14:27.149Z,27.21
2022-09-07T12:24:27.021Z,27.58
2022-09-07T12:34:27.173Z,26.58
2022-09-07T12:44:29.399Z,26.79
2022-09-07T12:54:27.298Z,26.55
2022-09-07T13:04:27.023Z,26.82
2022-09-07T13:14:27.213Z,27.06
2022-09-07T13:24:47.517Z,26.76
2022-09-07T13:34:27.180Z,26.43
2022-09-07T13:44:27.031Z,27.41
2022-09-07T13:54:27.095Z,27.19
2022-09-07T14:04:27.170Z,26.97
2022-09-07T14:14:27.117Z,27.49
2022-09-07T14:24:26.995Z,27.49
2022-09-07T14:34:27.183Z,27.63
2022-09-07T14:44:27.449Z,27.13
2022-09-07T14:54:27.249Z,25.39
2022-09-07T15:04:27.207Z,25.96
2022-09-07T15:14:27.257Z,25.77
2022-09-07T15:24:27.145Z,26.20
2022-09-07T15:34:27.320Z,27.41
2022-09-07T15:44:28.343Z,26.50
2022-09-07T15:54:27.348Z,27.00
2022-09-07T16:04:27.283Z,26.19
2022-09-07T16:14:27.412Z,26.41
2022-09-07T16:24:27.453Z,25.78
2022-09-07T16:34:27.423Z,25.43
2022-09-07T16:44:27.328Z,25.10
2022-09-07T16:54:27.652Z,24.98
2022-09-07T17:04:27.409Z,24.93
2022-09-07T17:14:27.474Z,22.82
2022-09-07T17:24:27.646Z,22.38
2022-09-07T17:34:27.641Z,22.04
2022-09-07T17:44:30.783Z,21.63
2022-09-07T17:54:27.510Z,20.93
2022-09-07T18:04:28.507Z,20.58
2022-09-07T18:14:27.501Z,20.57
2022-09-07T18:24:27.562Z,20.59
2022-09-07T18:34:27.627Z,20.35
2022-09-07T18:54:27.748Z,19.91
2022-09-07T19:05:49.674Z,19.76
2022-09-07T19:14:27.737Z,19.35
